sensor_id;sensor_type;location;lat;lon;timestamp;P1;durP1;ratioP1;P2;durP2;ratioP2
28174;SDS011;59417;44.788;10.334;2023-06-22T00:01:58;10.23;;;8.50;;
28174;SDS011;59417;44.788;10.334;2023-06-22T00:04:24;10.18;;;8.63;;
28174;SDS011;59417;44.788;10.334;2023-06-22T00:06:50;12.63;;;8.32;;
28174;SDS011;59417;44.788;10.334;2023-06-22T00:09:16;15.93;;;8.00;;
28174;SDS011;59417;44.788;10.334;2023-06-22T00:11:41;10.68;;;7.80;;
28174;SDS011;59417;44.788;10.334;2023-06-22T00:14:07;12.93;;;8.55;;
28174;SDS011;59417;44.788;10.334;2023-06-22T00:16:33;12.70;;;8.38;;
28174;SDS011;59417;44.788;10.334;2023-06-22T00:19:00;13.07;;;7.95;;
28174;SDS011;59417;44.788;10.334;2023-06-22T00:21:27;10.35;;;7.78;;
28174;SDS011;59417;44.788;10.334;2023-06-22T00:23:52;12.82;;;8.07;;
28174;SDS011;59417;44.788;10.334;2023-06-22T00:26:19;10.55;;;8.13;;
28174;SDS011;59417;44.788;10.334;2023-06-22T00:28:46;10.25;;;8.63;;
28174;SDS011;59417;44.788;10.334;2023-06-22T00:31:12;11.88;;;8.30;;
28174;SDS011;59417;44.788;10.334;2023-06-22T00:33:39;11.52;;;7.95;;
28174;SDS011;59417;44.788;10.334;2023-06-22T00:36:05;10.00;;;8.10;;
28174;SDS011;59417;44.788;10.334;2023-06-22T00:38:33;10.40;;;7.88;;
28174;SDS011;59417;44.788;10.334;2023-06-22T00:41:00;15.15;;;8.40;;
28174;SDS011;59417;44.788;10.334;2023-06-22T00:43:26;12.57;;;7.72;;
28174;SDS011;59417;44.788;10.334;2023-06-22T00:45:52;9.85;;;7.93;;
28174;SDS011;59417;44.788;10.334;2023-06-22T00:48:17;13.70;;;8.60;;
28174;SDS011;59417;44.788;10.334;2023-06-22T00:50:46;10.35;;;8.48;;
28174;SDS011;59417;44.788;10.334;2023-06-22T00:53:16;11.25;;;8.43;;
28174;SDS011;59417;44.788;10.334;2023-06-22T00:55:43;14.13;;;8.00;;
28174;SDS011;59417;44.788;10.334;2023-06-22T00:58:10;11.25;;;8.57;;
28174;SDS011;59417;44.788;10.334;2023-06-22T01:00:38;13.48;;;8.00;;
28174;SDS011;59417;44.788;10.334;2023-06-22T01:03:04;10.80;;;7.78;;
28174;SDS011;59417;44.788;10.334;2023-06-22T01:05:34;14.55;;;8.68;;
28174;SDS011;59417;44.788;10.334;2023-06-22T01:08:05;16.13;;;7.97;;
28174;SDS011;59417;44.788;10.334;2023-06-22T01:10:51;10.23;;;8.00;;
28174;SDS011;59417;44.788;10.334;2023-06-22T01:13:41;14.82;;;7.82;;
28174;SDS011;59417;44.788;10.334;2023-06-22T01:16:27;10.57;;;8.07;;
28174;SDS011;59417;44.788;10.334;2023-06-22T01:18:57;11.43;;;7.93;;
28174;SDS011;59417;44.788;10.334;2023-06-22T01:21:28;12.38;;;8.30;;
28174;SDS011;59417;44.788;10.334;2023-06-22T01:27:09;10.80;;;7.93;;
28174;SDS011;59417;44.788;10.334;2023-06-22T01:29:48;13.45;;;8.15;;
28174;SDS011;59417;44.788;10.334;2023-06-22T01:32:34;13.60;;;8.30;;
28174;SDS011;59417;44.788;10.334;2023-06-22T01:35:03;13.05;;;7.53;;
28174;SDS011;59417;44.788;10.334;2023-06-22T01:37:30;9.25;;;7.53;;
28174;SDS011;59417;44.788;10.334;2023-06-22T01:39:58;13.60;;;7.55;;
28174;SDS011;59417;44.788;10.334;2023-06-22T01:42:25;17.67;;;7.43;;
28174;SDS011;59417;44.788;10.334;2023-06-22T01:44:53;12.57;;;8.27;;
28174;SDS011;59417;44.788;10.334;2023-06-22T01:47:20;15.57;;;7.72;;
28174;SDS011;59417;44.788;10.334;2023-06-22T01:49:47;11.05;;;7.35;;
28174;SDS011;59417;44.788;10.334;2023-06-22T01:52:13;12.98;;;8.13;;
28174;SDS011;59417;44.788;10.334;2023-06-22T01:54:39;12.30;;;7.43;;
28174;SDS011;59417;44.788;10.334;2023-06-22T01:57:07;11.88;;;8.05;;
28174;SDS011;59417;44.788;10.334;2023-06-22T01:59:37;10.38;;;7.25;;
28174;SDS011;59417;44.788;10.334;2023-06-22T02:02:10;9.60;;;7.53;;
28174;SDS011;59417;44.788;10.334;2023-06-22T02:04:41;14.07;;;7.93;;
28174;SDS011;59417;44.788;10.334;2023-06-22T02:07:14;11.20;;;6.63;;
28174;SDS011;59417;44.788;10.334;2023-06-22T02:09:43;11.05;;;7.35;;
28174;SDS011;59417;44.788;10.334;2023-06-22T02:12:13;10.85;;;7.03;;
28174;SDS011;59417;44.788;10.334;2023-06-22T02:14:44;11.27;;;6.22;;
28174;SDS011;59417;44.788;10.334;2023-06-22T02:17:11;8.43;;;6.40;;
28174;SDS011;59417;44.788;10.334;2023-06-22T02:19:39;18.90;;;7.53;;
28174;SDS011;59417;44.788;10.334;2023-06-22T02:22:06;12.38;;;7.85;;
28174;SDS011;59417;44.788;10.334;2023-06-22T02:24:32;8.80;;;6.63;;
28174;SDS011;59417;44.788;10.334;2023-06-22T02:26:59;10.63;;;7.18;;
28174;SDS011;59417;44.788;10.334;2023-06-22T02:29:25;9.93;;;7.03;;
28174;SDS011;59417;44.788;10.334;2023-06-22T02:31:52;9.45;;;6.80;;
28174;SDS011;59417;44.788;10.334;2023-06-22T02:34:22;10.85;;;7.13;;
28174;SDS011;59417;44.788;10.334;2023-06-22T02:36:50;8.55;;;7.00;;
28174;SDS011;59417;44.788;10.334;2023-06-22T02:41:49;11.95;;;6.57;;
28174;SDS011;59417;44.788;10.334;2023-06-22T02:44:18;15.27;;;7.10;;
28174;SDS011;59417;44.788;10.334;2023-06-22T02:46:47;10.20;;;7.10;;
28174;SDS011;59417;44.788;10.334;2023-06-22T02:49:14;8.05;;;6.40;;
28174;SDS011;59417;44.788;10.334;2023-06-22T02:51:41;10.27;;;6.55;;
28174;SDS011;59417;44.788;10.334;2023-06-22T02:54:10;14.05;;;6.85;;
28174;SDS011;59417;44.788;10.334;2023-06-22T02:56:37;13.02;;;6.78;;
28174;SDS011;59417;44.788;10.334;2023-06-22T02:59:02;12.60;;;7.07;;
28174;SDS011;59417;44.788;10.334;2023-06-22T03:01:34;9.18;;;6.82;;
28174;SDS011;59417;44.788;10.334;2023-06-22T03:04:07;8.75;;;5.97;;
28174;SDS011;59417;44.788;10.334;2023-06-22T03:06:37;11.50;;;6.68;;
28174;SDS011;59417;44.788;10.334;2023-06-22T03:09:06;11.13;;;7.70;;
28174;SDS011;59417;44.788;10.334;2023-06-22T03:11:37;12.48;;;7.05;;
28174;SDS011;59417;44.788;10.334;2023-06-22T03:14:03;14.48;;;7.32;;
28174;SDS011;59417;44.788;10.334;2023-06-22T03:16:29;12.27;;;7.53;;
28174;SDS011;59417;44.788;10.334;2023-06-22T03:18:58;14.48;;;6.95;;
28174;SDS011;59417;44.788;10.334;2023-06-22T03:21:26;12.98;;;7.25;;
28174;SDS011;59417;44.788;10.334;2023-06-22T03:23:53;11.20;;;7.43;;
28174;SDS011;59417;44.788;10.334;2023-06-22T03:26:19;9.65;;;7.10;;
28174;SDS011;59417;44.788;10.334;2023-06-22T03:28:45;11.73;;;7.38;;
28174;SDS011;59417;44.788;10.334;2023-06-22T03:31:11;15.65;;;6.85;;
28174;SDS011;59417;44.788;10.334;2023-06-22T03:33:39;13.73;;;7.55;;
28174;SDS011;59417;44.788;10.334;2023-06-22T03:36:05;12.18;;;7.07;;
28174;SDS011;59417;44.788;10.334;2023-06-22T03:38:31;11.20;;;6.78;;
28174;SDS011;59417;44.788;10.334;2023-06-22T03:40:57;10.75;;;6.60;;
28174;SDS011;59417;44.788;10.334;2023-06-22T03:43:23;10.10;;;7.20;;
28174;SDS011;59417;44.788;10.334;2023-06-22T03:45:52;12.20;;;6.40;;
28174;SDS011;59417;44.788;10.334;2023-06-22T03:48:18;9.60;;;7.03;;
28174;SDS011;59417;44.788;10.334;2023-06-22T03:50:44;12.55;;;6.78;;
28174;SDS011;59417;44.788;10.334;2023-06-22T03:53:13;14.52;;;7.75;;
28174;SDS011;59417;44.788;10.334;2023-06-22T03:55:40;12.27;;;8.00;;
28174;SDS011;59417;44.788;10.334;2023-06-22T03:58:14;13.45;;;6.78;;
28174;SDS011;59417;44.788;10.334;2023-06-22T04:00:39;11.13;;;7.53;;
28174;SDS011;59417;44.788;10.334;2023-06-22T04:03:05;11.40;;;7.50;;
28174;SDS011;59417;44.788;10.334;2023-06-22T04:05:32;13.95;;;7.63;;
28174;SDS011;59417;44.788;10.334;2023-06-22T04:07:58;11.93;;;7.60;;
28174;SDS011;59417;44.788;10.334;2023-06-22T04:10:24;15.05;;;8.25;;
28174;SDS011;59417;44.788;10.334;2023-06-22T04:12:50;11.32;;;7.10;;
28174;SDS011;59417;44.788;10.334;2023-06-22T04:15:15;16.20;;;7.57;;
28174;SDS011;59417;44.788;10.334;2023-06-22T04:17:41;14.23;;;7.75;;
28174;SDS011;59417;44.788;10.334;2023-06-22T04:20:07;16.42;;;7.68;;
28174;SDS011;59417;44.788;10.334;2023-06-22T04:22:33;12.60;;;7.28;;
28174;SDS011;59417;44.788;10.334;2023-06-22T04:24:59;13.00;;;8.18;;
28174;SDS011;59417;44.788;10.334;2023-06-22T04:27:25;10.02;;;8.23;;
28174;SDS011;59417;44.788;10.334;2023-06-22T04:29:50;11.80;;;7.85;;
28174;SDS011;59417;44.788;10.334;2023-06-22T04:32:16;13.05;;;8.77;;
28174;SDS011;59417;44.788;10.334;2023-06-22T04:34:42;14.25;;;8.80;;
28174;SDS011;59417;44.788;10.334;2023-06-22T04:37:08;13.18;;;8.77;;
28174;SDS011;59417;44.788;10.334;2023-06-22T04:39:34;14.68;;;9.68;;
28174;SDS011;59417;44.788;10.334;2023-06-22T04:42:01;10.98;;;8.43;;
28174;SDS011;59417;44.788;10.334;2023-06-22T04:44:26;10.27;;;8.88;;
28174;SDS011;59417;44.788;10.334;2023-06-22T04:46:59;13.98;;;9.30;;
28174;SDS011;59417;44.788;10.334;2023-06-22T04:49:28;13.32;;;9.63;;
28174;SDS011;59417;44.788;10.334;2023-06-22T04:51:58;15.90;;;10.50;;
28174;SDS011;59417;44.788;10.334;2023-06-22T04:54:25;20.08;;;10.50;;
28174;SDS011;59417;44.788;10.334;2023-06-22T04:56:51;20.48;;;11.90;;
28174;SDS011;59417;44.788;10.334;2023-06-22T04:59:27;16.55;;;10.73;;
28174;SDS011;59417;44.788;10.334;2023-06-22T05:01:54;23.08;;;12.13;;
28174;SDS011;59417;44.788;10.334;2023-06-22T05:04:24;19.85;;;12.13;;
28174;SDS011;59417;44.788;10.334;2023-06-22T05:06:51;16.02;;;12.45;;
28174;SDS011;59417;44.788;10.334;2023-06-22T05:09:17;12.80;;;10.93;;
28174;SDS011;59417;44.788;10.334;2023-06-22T05:11:43;15.73;;;11.65;;
28174;SDS011;59417;44.788;10.334;2023-06-22T05:14:10;15.48;;;11.13;;
28174;SDS011;59417;44.788;10.334;2023-06-22T05:16:36;15.48;;;11.80;;
28174;SDS011;59417;44.788;10.334;2023-06-22T05:19:02;15.13;;;11.32;;
28174;SDS011;59417;44.788;10.334;2023-06-22T05:21:29;14.68;;;10.93;;
28174;SDS011;59417;44.788;10.334;2023-06-22T05:23:56;16.67;;;11.52;;
28174;SDS011;59417;44.788;10.334;2023-06-22T05:26:25;13.98;;;10.98;;
28174;SDS011;59417;44.788;10.334;2023-06-22T05:28:52;18.30;;;11.45;;
28174;SDS011;59417;44.788;10.334;2023-06-22T05:31:18;15.48;;;12.32;;
28174;SDS011;59417;44.788;10.334;2023-06-22T05:33:45;18.00;;;13.55;;
28174;SDS011;59417;44.788;10.334;2023-06-22T05:36:12;14.43;;;11.90;;
28174;SDS011;59417;44.788;10.334;2023-06-22T05:38:38;23.50;;;13.65;;
28174;SDS011;59417;44.788;10.334;2023-06-22T05:41:05;17.45;;;13.27;;
28174;SDS011;59417;44.788;10.334;2023-06-22T05:43:31;19.00;;;12.80;;
28174;SDS011;59417;44.788;10.334;2023-06-22T05:45:57;19.30;;;11.82;;
28174;SDS011;59417;44.788;10.334;2023-06-22T05:48:24;18.10;;;13.25;;
28174;SDS011;59417;44.788;10.334;2023-06-22T05:50:49;18.45;;;13.02;;
28174;SDS011;59417;44.788;10.334;2023-06-22T05:53:15;18.13;;;12.38;;
28174;SDS011;59417;44.788;10.334;2023-06-22T05:55:41;16.23;;;11.80;;
28174;SDS011;59417;44.788;10.334;2023-06-22T05:58:07;20.98;;;11.55;;
28174;SDS011;59417;44.788;10.334;2023-06-22T06:00:34;20.52;;;12.18;;
28174;SDS011;59417;44.788;10.334;2023-06-22T06:03:01;14.80;;;10.55;;
28174;SDS011;59417;44.788;10.334;2023-06-22T06:05:30;16.75;;;11.43;;
28174;SDS011;59417;44.788;10.334;2023-06-22T06:07:56;11.55;;;10.05;;
28174;SDS011;59417;44.788;10.334;2023-06-22T06:10:22;17.77;;;11.55;;
28174;SDS011;59417;44.788;10.334;2023-06-22T06:12:48;15.57;;;10.65;;
28174;SDS011;59417;44.788;10.334;2023-06-22T06:15:13;17.42;;;11.30;;
28174;SDS011;59417;44.788;10.334;2023-06-22T06:17:46;14.45;;;10.95;;
28174;SDS011;59417;44.788;10.334;2023-06-22T06:20:13;15.13;;;10.43;;
28174;SDS011;59417;44.788;10.334;2023-06-22T06:22:39;20.38;;;11.50;;
28174;SDS011;59417;44.788;10.334;2023-06-22T06:25:05;23.65;;;12.85;;
28174;SDS011;59417;44.788;10.334;2023-06-22T06:27:32;26.25;;;11.32;;
28174;SDS011;59417;44.788;10.334;2023-06-22T06:29:58;15.40;;;10.32;;
28174;SDS011;59417;44.788;10.334;2023-06-22T06:32:23;24.02;;;11.57;;
28174;SDS011;59417;44.788;10.334;2023-06-22T06:34:49;18.80;;;10.73;;
28174;SDS011;59417;44.788;10.334;2023-06-22T06:37:16;19.30;;;9.27;;
28174;SDS011;59417;44.788;10.334;2023-06-22T06:39:42;21.13;;;10.68;;
28174;SDS011;59417;44.788;10.334;2023-06-22T06:42:08;17.17;;;10.55;;
28174;SDS011;59417;44.788;10.334;2023-06-22T06:44:34;16.80;;;8.90;;
28174;SDS011;59417;44.788;10.334;2023-06-22T06:47:02;13.23;;;10.55;;
28174;SDS011;59417;44.788;10.334;2023-06-22T06:49:28;18.77;;;9.85;;
28174;SDS011;59417;44.788;10.334;2023-06-22T06:51:54;24.10;;;9.60;;
28174;SDS011;59417;44.788;10.334;2023-06-22T06:54:21;19.23;;;8.05;;
28174;SDS011;59417;44.788;10.334;2023-06-22T06:56:47;18.23;;;7.88;;
28174;SDS011;59417;44.788;10.334;2023-06-22T06:59:14;11.77;;;7.10;;
28174;SDS011;59417;44.788;10.334;2023-06-22T07:01:41;16.48;;;8.95;;
28174;SDS011;59417;44.788;10.334;2023-06-22T07:04:09;14.68;;;8.38;;
28174;SDS011;59417;44.788;10.334;2023-06-22T07:06:36;17.40;;;8.70;;
28174;SDS011;59417;44.788;10.334;2023-06-22T07:09:02;21.92;;;8.43;;
28174;SDS011;59417;44.788;10.334;2023-06-22T07:11:28;14.13;;;7.40;;
28174;SDS011;59417;44.788;10.334;2023-06-22T07:13:54;20.52;;;8.98;;
28174;SDS011;59417;44.788;10.334;2023-06-22T07:16:20;14.85;;;8.43;;
28174;SDS011;59417;44.788;10.334;2023-06-22T07:18:46;13.88;;;8.30;;
28174;SDS011;59417;44.788;10.334;2023-06-22T07:21:11;15.23;;;7.65;;
28174;SDS011;59417;44.788;10.334;2023-06-22T07:23:37;15.25;;;7.40;;
28174;SDS011;59417;44.788;10.334;2023-06-22T07:26:03;11.80;;;7.50;;
28174;SDS011;59417;44.788;10.334;2023-06-22T07:28:31;16.38;;;7.07;;
28174;SDS011;59417;44.788;10.334;2023-06-22T07:31:02;11.05;;;6.80;;
28174;SDS011;59417;44.788;10.334;2023-06-22T07:33:29;10.57;;;6.88;;
28174;SDS011;59417;44.788;10.334;2023-06-22T07:35:54;15.02;;;7.45;;
28174;SDS011;59417;44.788;10.334;2023-06-22T07:38:20;16.15;;;7.22;;
28174;SDS011;59417;44.788;10.334;2023-06-22T07:40:47;11.20;;;6.82;;
28174;SDS011;59417;44.788;10.334;2023-06-22T07:43:12;7.75;;;6.63;;
28174;SDS011;59417;44.788;10.334;2023-06-22T07:45:38;12.43;;;6.78;;
28174;SDS011;59417;44.788;10.334;2023-06-22T07:48:06;15.13;;;7.25;;
28174;SDS011;59417;44.788;10.334;2023-06-22T07:50:32;9.85;;;6.63;;
28174;SDS011;59417;44.788;10.334;2023-06-22T07:52:58;15.90;;;6.45;;
28174;SDS011;59417;44.788;10.334;2023-06-22T07:55:24;11.23;;;6.70;;
28174;SDS011;59417;44.788;10.334;2023-06-22T07:57:49;10.38;;;7.00;;
28174;SDS011;59417;44.788;10.334;2023-06-22T08:00:17;13.90;;;6.47;;
28174;SDS011;59417;44.788;10.334;2023-06-22T08:02:44;10.23;;;6.70;;
28174;SDS011;59417;44.788;10.334;2023-06-22T08:05:11;14.43;;;5.90;;
28174;SDS011;59417;44.788;10.334;2023-06-22T08:07:39;10.45;;;6.90;;
28174;SDS011;59417;44.788;10.334;2023-06-22T08:10:10;14.40;;;6.75;;
28174;SDS011;59417;44.788;10.334;2023-06-22T08:12:37;13.20;;;7.75;;
28174;SDS011;59417;44.788;10.334;2023-06-22T08:15:03;14.02;;;7.00;;
28174;SDS011;59417;44.788;10.334;2023-06-22T08:17:29;10.98;;;7.60;;
28174;SDS011;59417;44.788;10.334;2023-06-22T08:19:56;11.57;;;7.35;;
28174;SDS011;59417;44.788;10.334;2023-06-22T08:22:21;12.35;;;7.15;;
28174;SDS011;59417;44.788;10.334;2023-06-22T08:24:47;9.27;;;6.75;;
28174;SDS011;59417;44.788;10.334;2023-06-22T08:27:13;11.05;;;7.28;;
28174;SDS011;59417;44.788;10.334;2023-06-22T08:29:40;11.93;;;7.25;;
28174;SDS011;59417;44.788;10.334;2023-06-22T08:32:11;15.98;;;8.90;;
28174;SDS011;59417;44.788;10.334;2023-06-22T08:34:37;12.40;;;8.10;;
28174;SDS011;59417;44.788;10.334;2023-06-22T08:37:07;12.05;;;8.13;;
28174;SDS011;59417;44.788;10.334;2023-06-22T08:39:34;15.25;;;8.38;;
28174;SDS011;59417;44.788;10.334;2023-06-22T08:41:59;15.35;;;9.15;;
28174;SDS011;59417;44.788;10.334;2023-06-22T08:44:25;16.50;;;9.75;;
28174;SDS011;59417;44.788;10.334;2023-06-22T08:46:51;22.08;;;9.50;;
28174;SDS011;59417;44.788;10.334;2023-06-22T08:49:16;19.13;;;8.70;;
28174;SDS011;59417;44.788;10.334;2023-06-22T08:51:42;12.95;;;8.02;;
28174;SDS011;59417;44.788;10.334;2023-06-22T08:54:10;14.63;;;8.70;;
28174;SDS011;59417;44.788;10.334;2023-06-22T08:56:36;14.75;;;8.38;;
28174;SDS011;59417;44.788;10.334;2023-06-22T08:59:02;17.58;;;8.20;;
28174;SDS011;59417;44.788;10.334;2023-06-22T09:01:27;14.15;;;8.73;;
28174;SDS011;59417;44.788;10.334;2023-06-22T09:03:53;13.00;;;8.50;;
28174;SDS011;59417;44.788;10.334;2023-06-22T09:06:23;18.20;;;8.38;;
28174;SDS011;59417;44.788;10.334;2023-06-22T09:08:52;16.30;;;7.88;;
28174;SDS011;59417;44.788;10.334;2023-06-22T09:11:18;12.75;;;7.80;;
28174;SDS011;59417;44.788;10.334;2023-06-22T09:13:44;12.40;;;7.90;;
28174;SDS011;59417;44.788;10.334;2023-06-22T09:16:09;12.70;;;8.25;;
28174;SDS011;59417;44.788;10.334;2023-06-22T09:18:37;11.18;;;7.22;;
28174;SDS011;59417;44.788;10.334;2023-06-22T09:21:02;12.25;;;7.90;;
28174;SDS011;59417;44.788;10.334;2023-06-22T09:23:30;10.52;;;7.40;;
28174;SDS011;59417;44.788;10.334;2023-06-22T09:25:56;13.90;;;8.25;;
28174;SDS011;59417;44.788;10.334;2023-06-22T09:28:22;15.88;;;8.57;;
28174;SDS011;59417;44.788;10.334;2023-06-22T09:30:47;13.88;;;8.20;;
28174;SDS011;59417;44.788;10.334;2023-06-22T09:33:13;11.13;;;7.32;;
28174;SDS011;59417;44.788;10.334;2023-06-22T09:35:39;15.48;;;8.13;;
28174;SDS011;59417;44.788;10.334;2023-06-22T09:38:04;11.15;;;7.68;;
28174;SDS011;59417;44.788;10.334;2023-06-22T09:40:30;10.88;;;7.57;;
28174;SDS011;59417;44.788;10.334;2023-06-22T09:42:58;17.52;;;8.80;;
28174;SDS011;59417;44.788;10.334;2023-06-22T09:45:23;10.63;;;7.50;;
28174;SDS011;59417;44.788;10.334;2023-06-22T09:47:49;13.48;;;7.75;;
28174;SDS011;59417;44.788;10.334;2023-06-22T09:50:14;13.50;;;7.75;;
28174;SDS011;59417;44.788;10.334;2023-06-22T09:52:41;14.65;;;8.15;;
28174;SDS011;59417;44.788;10.334;2023-06-22T09:55:09;13.80;;;7.72;;
28174;SDS011;59417;44.788;10.334;2023-06-22T09:57:35;11.48;;;7.82;;
28174;SDS011;59417;44.788;10.334;2023-06-22T10:00:00;11.85;;;7.30;;
28174;SDS011;59417;44.788;10.334;2023-06-22T10:02:29;12.07;;;7.72;;
28174;SDS011;59417;44.788;10.334;2023-06-22T10:04:55;14.35;;;7.55;;
28174;SDS011;59417;44.788;10.334;2023-06-22T10:07:21;12.50;;;7.15;;
28174;SDS011;59417;44.788;10.334;2023-06-22T10:09:47;10.05;;;7.40;;
28174;SDS011;59417;44.788;10.334;2023-06-22T10:12:12;12.10;;;7.53;;
28174;SDS011;59417;44.788;10.334;2023-06-22T10:14:38;13.18;;;7.63;;
28174;SDS011;59417;44.788;10.334;2023-06-22T10:17:03;16.15;;;7.57;;
28174;SDS011;59417;44.788;10.334;2023-06-22T10:19:32;11.80;;;7.55;;
28174;SDS011;59417;44.788;10.334;2023-06-22T10:21:58;12.77;;;7.88;;
28174;SDS011;59417;44.788;10.334;2023-06-22T10:24:23;16.48;;;8.35;;
28174;SDS011;59417;44.788;10.334;2023-06-22T10:26:49;12.73;;;7.65;;
28174;SDS011;59417;44.788;10.334;2023-06-22T10:29:15;12.65;;;7.53;;
28174;SDS011;59417;44.788;10.334;2023-06-22T10:31:41;15.40;;;7.53;;
28174;SDS011;59417;44.788;10.334;2023-06-22T10:34:07;18.33;;;7.78;;
28174;SDS011;59417;44.788;10.334;2023-06-22T10:36:32;9.52;;;7.13;;
28174;SDS011;59417;44.788;10.334;2023-06-22T10:38:58;11.32;;;7.90;;
28174;SDS011;59417;44.788;10.334;2023-06-22T10:41:24;14.88;;;8.30;;
28174;SDS011;59417;44.788;10.334;2023-06-22T10:43:50;12.57;;;8.32;;
28174;SDS011;59417;44.788;10.334;2023-06-22T10:46:16;12.02;;;8.55;;
28174;SDS011;59417;44.788;10.334;2023-06-22T10:48:44;11.60;;;7.88;;
28174;SDS011;59417;44.788;10.334;2023-06-22T10:51:10;10.48;;;7.22;;
28174;SDS011;59417;44.788;10.334;2023-06-22T10:53:35;15.23;;;8.23;;
28174;SDS011;59417;44.788;10.334;2023-06-22T10:56:01;17.42;;;8.77;;
28174;SDS011;59417;44.788;10.334;2023-06-22T10:58:27;11.77;;;8.52;;
28174;SDS011;59417;44.788;10.334;2023-06-22T11:00:52;19.10;;;8.48;;
28174;SDS011;59417;44.788;10.334;2023-06-22T11:03:18;12.80;;;7.97;;
28174;SDS011;59417;44.788;10.334;2023-06-22T11:05:44;14.80;;;7.60;;
28174;SDS011;59417;44.788;10.334;2023-06-22T11:08:11;11.70;;;8.15;;
28174;SDS011;59417;44.788;10.334;2023-06-22T11:10:36;14.38;;;8.50;;
28174;SDS011;59417;44.788;10.334;2023-06-22T11:13:02;11.20;;;8.00;;
28174;SDS011;59417;44.788;10.334;2023-06-22T11:15:29;8.23;;;6.80;;
28174;SDS011;59417;44.788;10.334;2023-06-22T11:17:55;14.63;;;8.23;;
28174;SDS011;59417;44.788;10.334;2023-06-22T11:20:25;11.50;;;7.65;;
28174;SDS011;59417;44.788;10.334;2023-06-22T11:22:51;12.85;;;7.30;;
28174;SDS011;59417;44.788;10.334;2023-06-22T11:25:16;9.82;;;6.75;;
28174;SDS011;59417;44.788;10.334;2023-06-22T11:27:42;9.65;;;7.10;;
28174;SDS011;59417;44.788;10.334;2023-06-22T11:30:08;11.07;;;6.85;;
28174;SDS011;59417;44.788;10.334;2023-06-22T11:32:35;16.80;;;8.00;;
28174;SDS011;59417;44.788;10.334;2023-06-22T11:35:01;10.02;;;7.55;;
28174;SDS011;59417;44.788;10.334;2023-06-22T11:37:26;22.52;;;7.97;;
28174;SDS011;59417;44.788;10.334;2023-06-22T11:39:52;9.55;;;7.10;;
28174;SDS011;59417;44.788;10.334;2023-06-22T11:42:20;14.00;;;8.02;;
28174;SDS011;59417;44.788;10.334;2023-06-22T11:44:46;9.95;;;7.95;;
28174;SDS011;59417;44.788;10.334;2023-06-22T11:47:11;10.25;;;7.85;;
28174;SDS011;59417;44.788;10.334;2023-06-22T11:49:37;12.48;;;7.50;;
28174;SDS011;59417;44.788;10.334;2023-06-22T11:52:02;13.05;;;7.75;;
28174;SDS011;59417;44.788;10.334;2023-06-22T11:54:28;12.70;;;8.23;;
28174;SDS011;59417;44.788;10.334;2023-06-22T11:56:54;12.88;;;7.95;;
28174;SDS011;59417;44.788;10.334;2023-06-22T11:59:20;14.27;;;7.72;;
28174;SDS011;59417;44.788;10.334;2023-06-22T12:01:47;11.85;;;7.88;;
28174;SDS011;59417;44.788;10.334;2023-06-22T12:04:14;15.40;;;7.95;;
28174;SDS011;59417;44.788;10.334;2023-06-22T12:06:42;13.95;;;8.20;;
28174;SDS011;59417;44.788;10.334;2023-06-22T12:09:09;12.32;;;7.85;;
28174;SDS011;59417;44.788;10.334;2023-06-22T12:11:35;12.50;;;7.75;;
28174;SDS011;59417;44.788;10.334;2023-06-22T12:14:01;17.33;;;7.43;;
28174;SDS011;59417;44.788;10.334;2023-06-22T12:16:28;11.75;;;8.55;;
28174;SDS011;59417;44.788;10.334;2023-06-22T12:18:53;8.85;;;7.30;;
28174;SDS011;59417;44.788;10.334;2023-06-22T12:21:20;25.20;;;7.15;;
28174;SDS011;59417;44.788;10.334;2023-06-22T12:23:45;17.85;;;8.25;;
28174;SDS011;59417;44.788;10.334;2023-06-22T12:26:11;10.15;;;7.63;;
28174;SDS011;59417;44.788;10.334;2023-06-22T12:28:37;9.15;;;6.78;;
28174;SDS011;59417;44.788;10.334;2023-06-22T12:31:02;16.95;;;8.40;;
28174;SDS011;59417;44.788;10.334;2023-06-22T12:33:28;11.57;;;8.45;;
28174;SDS011;59417;44.788;10.334;2023-06-22T12:35:55;11.27;;;8.50;;
28174;SDS011;59417;44.788;10.334;2023-06-22T12:38:22;15.82;;;8.43;;
28174;SDS011;59417;44.788;10.334;2023-06-22T12:40:50;18.42;;;8.35;;
28174;SDS011;59417;44.788;10.334;2023-06-22T12:43:15;13.13;;;9.02;;
28174;SDS011;59417;44.788;10.334;2023-06-22T12:45:41;12.65;;;8.13;;
28174;SDS011;59417;44.788;10.334;2023-06-22T12:48:06;16.10;;;8.40;;
28174;SDS011;59417;44.788;10.334;2023-06-22T12:50:33;14.88;;;8.93;;
28174;SDS011;59417;44.788;10.334;2023-06-22T12:52:59;17.65;;;8.57;;
28174;SDS011;59417;44.788;10.334;2023-06-22T12:55:27;11.80;;;7.97;;
28174;SDS011;59417;44.788;10.334;2023-06-22T12:57:55;16.25;;;9.00;;
28174;SDS011;59417;44.788;10.334;2023-06-22T13:00:21;13.15;;;8.40;;
28174;SDS011;59417;44.788;10.334;2023-06-22T13:02:47;9.77;;;7.68;;
28174;SDS011;59417;44.788;10.334;2023-06-22T13:05:12;13.27;;;8.45;;
28174;SDS011;59417;44.788;10.334;2023-06-22T13:07:38;11.98;;;7.85;;
28174;SDS011;59417;44.788;10.334;2023-06-22T13:10:04;12.68;;;8.93;;
28174;SDS011;59417;44.788;10.334;2023-06-22T13:12:30;20.00;;;8.85;;
28174;SDS011;59417;44.788;10.334;2023-06-22T13:14:56;9.63;;;8.65;;
28174;SDS011;59417;44.788;10.334;2023-06-22T13:17:21;15.40;;;8.73;;
28174;SDS011;59417;44.788;10.334;2023-06-22T13:19:47;15.50;;;8.77;;
28174;SDS011;59417;44.788;10.334;2023-06-22T13:22:34;12.50;;;8.65;;
28174;SDS011;59417;44.788;10.334;2023-06-22T13:25:05;12.95;;;8.70;;
28174;SDS011;59417;44.788;10.334;2023-06-22T13:27:31;18.17;;;9.05;;
28174;SDS011;59417;44.788;10.334;2023-06-22T13:29:57;20.23;;;9.35;;
28174;SDS011;59417;44.788;10.334;2023-06-22T13:32:23;20.33;;;9.57;;
28174;SDS011;59417;44.788;10.334;2023-06-22T13:34:51;13.18;;;9.23;;
28174;SDS011;59417;44.788;10.334;2023-06-22T13:37:17;16.17;;;9.23;;
28174;SDS011;59417;44.788;10.334;2023-06-22T13:39:43;15.50;;;9.63;;
28174;SDS011;59417;44.788;10.334;2023-06-22T13:42:09;13.40;;;9.52;;
28174;SDS011;59417;44.788;10.334;2023-06-22T13:44:35;12.75;;;9.50;;
28174;SDS011;59417;44.788;10.334;2023-06-22T13:47:01;15.35;;;10.00;;
28174;SDS011;59417;44.788;10.334;2023-06-22T13:49:27;14.02;;;10.10;;
28174;SDS011;59417;44.788;10.334;2023-06-22T13:51:53;17.20;;;10.82;;
28174;SDS011;59417;44.788;10.334;2023-06-22T13:54:18;14.60;;;9.95;;
28174;SDS011;59417;44.788;10.334;2023-06-22T13:56:44;16.63;;;9.73;;
28174;SDS011;59417;44.788;10.334;2023-06-22T13:59:10;23.33;;;9.93;;
28174;SDS011;59417;44.788;10.334;2023-06-22T14:01:36;14.63;;;10.05;;
28174;SDS011;59417;44.788;10.334;2023-06-22T14:04:04;18.05;;;11.00;;
28174;SDS011;59417;44.788;10.334;2023-06-22T14:06:30;15.80;;;10.02;;
28174;SDS011;59417;44.788;10.334;2023-06-22T14:08:56;13.50;;;9.13;;
28174;SDS011;59417;44.788;10.334;2023-06-22T14:11:25;11.32;;;9.95;;
28174;SDS011;59417;44.788;10.334;2023-06-22T14:13:51;16.15;;;10.68;;
28174;SDS011;59417;44.788;10.334;2023-06-22T14:16:17;12.65;;;10.23;;
28174;SDS011;59417;44.788;10.334;2023-06-22T14:18:42;15.13;;;10.30;;
28174;SDS011;59417;44.788;10.334;2023-06-22T14:21:09;18.70;;;10.02;;
28174;SDS011;59417;44.788;10.334;2023-06-22T14:23:35;19.67;;;9.85;;
28174;SDS011;59417;44.788;10.334;2023-06-22T14:26:02;13.65;;;10.35;;